createdAt,value
2017-09-23T00:00:37.849Z,35.83
2017-09-23T00:03:06.171Z,34.10
2017-09-23T00:05:35.258Z,34.60
2017-09-23T00:08:04.339Z,34.10
2017-09-23T00:10:32.659Z,37.13
2017-09-23T00:13:00.970Z,35.60
2017-09-23T00:15:29.318Z,33.80
2017-09-23T00:17:57.628Z,34.90
2017-09-23T00:20:25.968Z,39.17
2017-09-23T00:22:54.351Z,35.60
2017-09-23T00:25:22.673Z,39.37
2017-09-23T00:27:50.994Z,40.10
2017-09-23T00:30:19.310Z,44.10
2017-09-23T00:32:48.398Z,42.67
2017-09-23T00:35:16.725Z,45.40
2017-09-23T00:37:45.811Z,41.40
2017-09-23T00:40:14.121Z,45.77
2017-09-23T00:42:42.438Z,44.00
2017-09-23T00:45:10.751Z,50.40
2017-09-23T00:47:39.838Z,46.47
2017-09-23T00:50:08.921Z,47.63
2017-09-23T00:52:37.270Z,42.60
2017-09-23T00:55:05.587Z,41.97
2017-09-23T00:57:33.897Z,42.33
2017-09-23T01:00:02.234Z,47.50
2017-09-23T01:02:30.543Z,50.83
2017-09-23T01:04:58.862Z,44.03
2017-09-23T01:07:27.930Z,40.77
2017-09-23T01:09:56.265Z,39.03
2017-09-23T01:12:24.581Z,45.93
2017-09-23T01:14:52.903Z,42.17
2017-09-23T01:17:21.218Z,40.30
2017-09-23T01:19:50.318Z,37.50
2017-09-23T01:22:18.638Z,37.63
2017-09-23T01:24:46.968Z,37.47
2017-09-23T01:27:16.042Z,36.77
2017-09-23T01:29:45.166Z,39.30
2017-09-23T01:32:13.482Z,38.97
2017-09-23T01:34:41.803Z,42.83
2017-09-23T01:37:10.890Z,43.07
2017-09-23T01:39:39.218Z,36.87
2017-09-23T01:42:07.550Z,35.63
2017-09-23T01:44:36.901Z,40.80
2017-09-23T01:47:05.225Z,41.90
2017-09-23T01:49:33.550Z,37.70
2017-09-23T01:52:01.902Z,39.87
2017-09-23T01:54:30.992Z,38.40
2017-09-23T01:57:00.070Z,35.30
2017-09-23T01:59:28.393Z,36.77
2017-09-23T02:01:56.710Z,39.47
2017-09-23T02:04:25.041Z,38.13
2017-09-23T02:06:53.342Z,36.13
2017-09-23T02:09:21.670Z,40.73
2017-09-23T02:11:50.749Z,37.90
2017-09-23T02:14:19.075Z,35.97
2017-09-23T02:16:47.389Z,37.83
2017-09-23T02:19:15.710Z,39.37
2017-09-23T02:21:44.025Z,42.63
2017-09-23T02:24:12.353Z,43.80
2017-09-23T02:26:41.457Z,49.63
2017-09-23T02:29:10.535Z,44.43
2017-09-23T02:31:39.648Z,39.97
2017-09-23T02:34:07.969Z,41.40
2017-09-23T02:36:36.290Z,46.43
2017-09-23T02:39:05.382Z,41.07
2017-09-23T02:41:34.490Z,45.67
2017-09-23T02:44:03.562Z,43.43
2017-09-23T02:46:31.876Z,38.80
2017-09-23T02:49:00.188Z,39.00
2017-09-23T02:51:28.510Z,39.90
2017-09-23T02:53:57.586Z,45.70
2017-09-23T02:56:25.922Z,48.87
2017-09-23T02:58:54.232Z,60.77
2017-09-23T03:01:22.541Z,47.40
2017-09-23T03:03:51.616Z,42.67
2017-09-23T03:06:19.916Z,47.27
2017-09-23T03:08:48.996Z,46.47
2017-09-23T03:11:18.084Z,43.30
2017-09-23T03:13:46.394Z,46.73
2017-09-23T03:16:14.701Z,42.20
2017-09-23T03:18:43.030Z,39.47
2017-09-23T03:21:12.109Z,38.93
2017-09-23T03:23:40.457Z,38.53
2017-09-23T03:26:08.770Z,40.67
2017-09-23T03:28:37.081Z,40.60
2017-09-23T03:31:05.404Z,41.33
2017-09-23T03:33:33.724Z,44.50
2017-09-23T03:36:02.801Z,43.07
2017-09-23T03:38:31.105Z,43.87
2017-09-23T03:40:59.429Z,48.40
2017-09-23T03:43:27.741Z,39.83
2017-09-23T03:45:56.840Z,41.90
2017-09-23T03:48:25.913Z,46.50
2017-09-23T03:50:54.404Z,45.13
2017-09-23T03:53:22.721Z,41.60
2017-09-23T03:55:51.028Z,41.13
2017-09-23T03:58:19.345Z,44.13
2017-09-23T04:00:48.404Z,45.10
2017-09-23T04:03:16.720Z,38.70
2017-09-23T04:05:45.787Z,41.73
2017-09-23T04:08:14.099Z,47.50
2017-09-23T04:10:42.404Z,42.00
2017-09-23T04:13:10.737Z,38.37
2017-09-23T04:15:39.817Z,41.30
2017-09-23T04:18:08.141Z,40.50
2017-09-23T04:20:36.460Z,44.87
2017-09-23T04:23:04.760Z,47.60
2017-09-23T04:25:33.076Z,37.97
2017-09-23T04:28:01.382Z,37.00
2017-09-23T04:30:29.697Z,45.43
2017-09-23T04:32:58.773Z,45.10
2017-09-23T04:35:27.089Z,39.83
2017-09-23T04:37:55.401Z,35.70
2017-09-23T04:40:23.721Z,41.07
2017-09-23T04:42:52.036Z,40.63
2017-09-23T04:45:20.378Z,43.40
2017-09-23T04:47:49.450Z,42.20
2017-09-23T04:50:17.758Z,45.53
2017-09-23T04:52:46.840Z,38.33
2017-09-23T04:55:15.153Z,38.33
2017-09-23T04:57:43.461Z,47.07
2017-09-23T05:00:11.756Z,41.63
2017-09-23T05:02:40.065Z,41.50
2017-09-23T05:05:09.133Z,40.13
2017-09-23T05:07:37.485Z,49.17
2017-09-23T05:10:05.777Z,45.90
2017-09-23T05:12:34.892Z,49.27
2017-09-23T05:15:03.189Z,46.73
2017-09-23T05:17:31.528Z,46.13
2017-09-23T05:19:59.820Z,47.70
2017-09-23T05:22:28.122Z,48.30
2017-09-23T05:24:56.432Z,52.13
2017-09-23T05:27:24.721Z,44.27
2017-09-23T05:29:53.046Z,54.13
2017-09-23T05:32:21.370Z,49.50
2017-09-23T05:34:49.682Z,58.87
2017-09-23T05:37:17.990Z,45.73
2017-09-23T05:39:46.328Z,42.03
2017-09-23T05:42:14.636Z,43.87
2017-09-23T05:44:43.728Z,44.20
2017-09-23T05:47:12.788Z,50.67
2017-09-23T05:49:41.080Z,40.43
2017-09-23T05:52:09.511Z,40.33
2017-09-23T05:54:37.812Z,45.60
2017-09-23T05:57:06.120Z,45.53
2017-09-23T05:59:34.463Z,46.33
2017-09-23T06:02:02.768Z,39.37
2017-09-23T06:04:31.069Z,48.83
2017-09-23T06:07:00.138Z,41.80
2017-09-23T06:09:28.436Z,46.00
2017-09-23T06:11:57.522Z,39.00
2017-09-23T06:14:26.601Z,41.37
2017-09-23T06:16:54.936Z,39.60
2017-09-23T06:19:23.240Z,38.17
2017-09-23T06:21:51.541Z,39.23
2017-09-23T06:24:19.853Z,39.77
2017-09-23T06:26:48.165Z,39.43
2017-09-23T06:29:16.467Z,37.97
2017-09-23T06:31:44.768Z,40.20
2017-09-23T06:34:13.838Z,38.03
2017-09-23T06:36:42.142Z,34.97
2017-09-23T06:39:11.220Z,37.63
2017-09-23T06:41:39.548Z,37.07
2017-09-23T06:44:07.856Z,37.33
2017-09-23T06:46:36.156Z,33.87
2017-09-23T06:49:05.253Z,36.07
2017-09-23T06:51:34.320Z,34.57
2017-09-23T06:54:02.625Z,39.47
2017-09-23T06:56:31.717Z,36.13
2017-09-23T06:59:00.025Z,35.47
2017-09-23T07:01:28.332Z,32.90
2017-09-23T07:03:56.628Z,33.33
2017-09-23T07:06:24.939Z,30.17
2017-09-23T07:08:54.011Z,32.60
2017-09-23T07:11:22.342Z,32.10
2017-09-23T07:13:50.631Z,29.83
2017-09-23T07:16:18.934Z,27.67
2017-09-23T07:18:47.245Z,30.53
2017-09-23T07:21:15.591Z,28.53
2017-09-23T07:23:44.694Z,32.10
2017-09-23T07:26:13.006Z,34.27
2017-09-23T07:28:41.333Z,36.77
2017-09-23T07:31:09.647Z,28.43
2017-09-23T07:33:37.969Z,29.47
2017-09-23T07:36:06.265Z,31.20
2017-09-23T07:38:34.584Z,28.53
2017-09-23T07:41:03.649Z,29.97
2017-09-23T07:43:31.977Z,31.77
2017-09-23T07:46:00.281Z,31.43
2017-09-23T07:48:28.601Z,29.73
2017-09-23T07:50:57.669Z,28.77
2017-09-23T07:53:26.016Z,31.73
2017-09-23T07:55:54.318Z,36.00
2017-09-23T07:58:22.632Z,31.67
2017-09-23T08:00:51.706Z,31.90
2017-09-23T08:03:20.013Z,28.93
2017-09-23T08:05:49.088Z,30.77
2017-09-23T08:08:17.385Z,27.20
2017-09-23T08:10:46.461Z,28.30
2017-09-23T08:13:14.773Z,30.03
2017-09-23T08:15:43.077Z,30.10
2017-09-23T08:18:11.382Z,29.57
2017-09-23T08:20:39.721Z,35.20
2017-09-23T08:23:08.022Z,30.67
2017-09-23T08:25:36.324Z,29.73
2017-09-23T08:28:05.405Z,29.73
2017-09-23T08:30:33.714Z,25.13
2017-09-23T08:33:02.792Z,29.07
2017-09-23T08:35:31.865Z,27.33
2017-09-23T08:38:00.176Z,27.60
2017-09-23T08:40:29.257Z,26.17
2017-09-23T08:42:57.600Z,26.10
2017-09-23T08:45:25.906Z,28.33
2017-09-23T08:47:54.206Z,25.57
2017-09-23T08:50:23.276Z,24.30
2017-09-23T08:52:51.588Z,25.80
2017-09-23T08:55:19.907Z,25.70
2017-09-23T08:57:48.209Z,22.10
2017-09-23T09:00:16.521Z,21.37
2017-09-23T09:02:44.825Z,21.13
2017-09-23T09:05:13.136Z,20.90
2017-09-23T09:07:41.432Z,23.90
2017-09-23T09:10:10.529Z,21.43
2017-09-23T09:12:39.609Z,25.93
2017-09-23T09:15:07.917Z,19.53
2017-09-23T09:17:36.224Z,21.23
2017-09-23T09:20:04.525Z,22.03
2017-09-23T09:22:32.828Z,17.97
2017-09-23T09:25:01.914Z,20.13
2017-09-23T09:27:30.224Z,19.23
2017-09-23T09:29:58.524Z,18.50
2017-09-23T09:32:26.860Z,17.90
2017-09-23T09:34:55.933Z,22.73
2017-09-23T09:37:24.238Z,12.33
2017-09-23T09:39:53.317Z,15.17
2017-09-23T09:42:21.624Z,13.70
2017-09-23T09:44:49.929Z,11.43
2017-09-23T09:47:18.222Z,9.30
2017-09-23T09:49:46.534Z,10.60
2017-09-23T09:52:15.596Z,7.60
2017-09-23T09:54:43.934Z,6.53
2017-09-23T09:57:12.229Z,7.53
2017-09-23T09:59:40.532Z,8.17
2017-09-23T10:02:08.839Z,7.63
2017-09-23T10:04:37.912Z,13.03
2017-09-23T10:07:06.221Z,3.57
2017-09-23T10:09:35.298Z,4.90
2017-09-23T10:12:03.607Z,3.17
2017-09-23T10:14:31.905Z,3.77
2017-09-23T10:17:00.214Z,4.43
2017-09-23T10:19:28.517Z,3.90
2017-09-23T10:21:57.613Z,5.90
2017-09-23T10:24:26.736Z,3.30
2017-09-23T10:26:55.032Z,3.40
2017-09-23T10:29:23.328Z,3.43
2017-09-23T10:31:51.622Z,3.50
2017-09-23T10:34:19.930Z,3.17
2017-09-23T10:36:48.245Z,14.37
2017-09-23T10:39:16.555Z,2.80
2017-09-23T10:41:44.861Z,9.97
2017-09-23T10:44:13.209Z,3.20
2017-09-23T10:46:41.509Z,3.83
2017-09-23T10:49:09.809Z,3.13
2017-09-23T10:51:38.108Z,2.93
2017-09-23T10:54:06.409Z,3.03
2017-09-23T10:56:34.725Z,2.97
2017-09-23T10:59:03.019Z,3.57
2017-09-23T11:01:31.327Z,4.00
2017-09-23T11:03:59.617Z,3.30
2017-09-23T11:06:27.924Z,3.70
2017-09-23T11:08:57.056Z,2.90
2017-09-23T11:11:25.384Z,5.83
2017-09-23T11:13:54.444Z,5.90
2017-09-23T11:16:22.737Z,5.13
2017-09-23T11:18:51.047Z,5.17
2017-09-23T11:21:19.342Z,4.37
2017-09-23T11:23:47.648Z,8.10
2017-09-23T11:26:15.946Z,7.00
2017-09-23T11:28:44.253Z,4.30
2017-09-23T11:31:12.558Z,5.93
2017-09-23T11:33:40.886Z,4.87
2017-09-23T11:36:09.184Z,4.10
2017-09-23T11:38:38.249Z,4.80
2017-09-23T11:41:06.586Z,4.70
2017-09-23T11:43:34.897Z,4.30
2017-09-23T11:46:03.197Z,4.03
2017-09-23T11:48:32.257Z,3.70
2017-09-23T11:51:00.575Z,3.60
2017-09-23T11:53:29.645Z,5.93
2017-09-23T11:55:57.960Z,4.43
2017-09-23T11:58:26.290Z,11.67
2017-09-23T12:00:54.616Z,8.23
2017-09-23T12:03:22.925Z,6.77
2017-09-23T12:05:51.240Z,7.03
2017-09-23T12:08:19.605Z,9.03
2017-09-23T12:10:47.905Z,5.57
2017-09-23T12:13:16.978Z,4.77
2017-09-23T12:15:45.277Z,5.50
2017-09-23T12:18:14.370Z,6.10
2017-09-23T12:20:43.438Z,5.30
2017-09-23T12:23:11.766Z,5.20
2017-09-23T12:25:40.060Z,7.70
2017-09-23T12:28:08.352Z,4.47
2017-09-23T12:30:36.652Z,4.00
2017-09-23T12:33:04.949Z,5.90
2017-09-23T12:35:33.252Z,7.13
2017-09-23T12:38:01.545Z,4.60
2017-09-23T12:40:29.858Z,4.40
2017-09-23T12:42:58.168Z,5.10
2017-09-23T12:45:27.237Z,4.73
2017-09-23T12:47:55.538Z,4.83
2017-09-23T12:50:24.628Z,4.13
2017-09-23T12:52:53.690Z,4.20
2017-09-23T12:55:21.980Z,3.87
2017-09-23T12:57:50.288Z,5.80
2017-09-23T13:00:19.358Z,4.30
2017-09-23T13:02:47.665Z,4.10
2017-09-23T13:05:16.734Z,4.50
2017-09-23T13:07:45.040Z,6.37
2017-09-23T13:10:13.352Z,6.63
2017-09-23T13:12:41.661Z,5.83
2017-09-23T13:15:09.955Z,4.17
2017-09-23T13:17:39.045Z,5.43
2017-09-23T13:20:08.114Z,4.90
2017-09-23T13:22:36.403Z,3.63
2017-09-23T13:25:04.705Z,4.50
2017-09-23T13:27:33.764Z,6.43
2017-09-23T13:30:02.061Z,4.27
2017-09-23T13:32:30.357Z,3.90
2017-09-23T13:34:59.456Z,7.97
2017-09-23T13:37:27.762Z,3.97
2017-09-23T13:39:56.075Z,3.83
2017-09-23T13:42:24.372Z,4.00
2017-09-23T13:44:53.460Z,4.97
2017-09-23T13:47:21.753Z,4.60
2017-09-23T13:49:50.817Z,8.60
2017-09-23T13:52:19.124Z,7.13
2017-09-23T13:54:48.190Z,11.70
2017-09-23T13:57:16.494Z,4.13
2017-09-23T13:59:45.564Z,4.20
2017-09-23T14:02:13.873Z,7.60
2017-09-23T14:04:42.936Z,6.13
2017-09-23T14:07:11.239Z,8.20
2017-09-23T14:09:40.310Z,8.53
2017-09-23T14:12:08.633Z,3.83
2017-09-23T14:14:36.926Z,4.73
2017-09-23T14:17:05.281Z,5.50
2017-09-23T14:19:35.171Z,5.80
2017-09-23T14:22:04.238Z,6.03
2017-09-23T14:24:32.548Z,7.67
2017-09-23T14:27:01.821Z,5.43
2017-09-23T14:29:30.133Z,6.53
2017-09-23T14:31:59.193Z,8.90
2017-09-23T14:34:27.521Z,8.50
2017-09-23T14:36:55.817Z,8.83
2017-09-23T14:39:24.108Z,8.23
2017-09-23T14:41:52.412Z,5.53
2017-09-23T14:44:20.715Z,6.87
2017-09-23T14:46:49.784Z,6.97
2017-09-23T14:49:18.077Z,5.13
2017-09-23T14:51:47.145Z,8.30
2017-09-23T14:54:15.436Z,7.97
2017-09-23T14:56:43.735Z,7.40
2017-09-23T14:59:12.789Z,9.40
2017-09-23T15:01:41.117Z,8.80
2017-09-23T15:04:09.424Z,8.93
2017-09-23T15:06:37.722Z,15.20
2017-09-23T15:09:06.061Z,7.20
2017-09-23T15:11:34.352Z,7.70
2017-09-23T15:14:02.654Z,9.07
2017-09-23T15:16:30.962Z,10.20
2017-09-23T15:19:00.038Z,10.17
2017-09-23T15:21:28.360Z,8.27
2017-09-23T15:23:56.690Z,24.63
2017-09-23T15:26:24.987Z,5.70
2017-09-23T15:28:54.057Z,10.70
2017-09-23T15:31:22.365Z,7.90
2017-09-23T15:33:51.432Z,11.70
2017-09-23T15:36:19.755Z,9.50
2017-09-23T15:38:48.052Z,13.80
2017-09-23T15:41:16.624Z,13.30
2017-09-23T15:43:45.203Z,15.57
2017-09-23T15:46:13.523Z,20.80
2017-09-23T15:48:41.836Z,17.03
2017-09-23T15:51:10.912Z,15.30
2017-09-23T15:53:39.227Z,20.20
2017-09-23T15:56:07.537Z,23.27
2017-09-23T15:58:35.843Z,24.47
2017-09-23T16:01:04.159Z,24.17
2017-09-23T16:03:32.505Z,18.47
2017-09-23T16:06:01.576Z,19.53
2017-09-23T16:08:29.878Z,17.30
2017-09-23T16:10:58.956Z,21.50
2017-09-23T16:13:27.257Z,22.57
2017-09-23T16:15:56.349Z,17.03
2017-09-23T16:18:25.421Z,25.20
2017-09-23T16:20:53.736Z,19.40
2017-09-23T16:23:22.051Z,18.90
2017-09-23T16:25:50.362Z,23.50
2017-09-23T16:28:18.654Z,34.20
2017-09-23T16:30:47.742Z,21.77
2017-09-23T16:33:16.045Z,28.27
2017-09-23T16:35:44.361Z,32.20
2017-09-23T16:38:12.681Z,30.00
2017-09-23T16:40:41.761Z,21.80
2017-09-23T16:43:10.087Z,31.77
2017-09-23T16:45:38.394Z,20.57
2017-09-23T16:48:06.703Z,13.17
2017-09-23T16:50:35.775Z,14.23
2017-09-23T16:53:04.114Z,12.37
2017-09-23T16:55:32.424Z,12.63
2017-09-23T16:58:00.718Z,7.63
2017-09-23T17:00:29.036Z,11.30
2017-09-23T17:02:57.341Z,8.40
2017-09-23T17:05:25.657Z,9.40
2017-09-23T17:07:53.956Z,14.57
2017-09-23T17:10:22.265Z,11.20
2017-09-23T17:12:50.573Z,17.63
2017-09-23T17:15:18.901Z,25.80
2017-09-23T17:17:47.217Z,31.07
2017-09-23T17:20:15.521Z,47.90
2017-09-23T17:22:43.833Z,31.63
2017-09-23T17:25:12.137Z,15.30
2017-09-23T17:27:40.447Z,19.53
2017-09-23T17:30:08.765Z,52.87
2017-09-23T17:32:37.082Z,13.50
2017-09-23T17:35:05.391Z,28.43
2017-09-23T17:37:33.769Z,21.27
2017-09-23T17:40:02.845Z,47.50
2017-09-23T17:42:31.171Z,16.83
2017-09-23T17:44:59.461Z,9.80
2017-09-23T17:47:27.789Z,11.90
2017-09-23T17:49:56.097Z,8.40
2017-09-23T17:52:24.409Z,11.33
2017-09-23T17:54:52.770Z,11.20
2017-09-23T17:57:21.094Z,8.23
2017-09-23T17:59:49.404Z,8.17
2017-09-23T18:02:17.990Z,7.30
2017-09-23T18:04:46.302Z,8.70
2017-09-23T18:07:14.593Z,7.80
2017-09-23T18:09:42.901Z,9.10
2017-09-23T18:12:11.969Z,8.00
2017-09-23T18:14:40.307Z,7.90
2017-09-23T18:17:08.632Z,10.73
2017-09-23T18:19:36.984Z,8.43
2017-09-23T18:22:05.274Z,11.20
2017-09-23T18:24:34.128Z,7.97
2017-09-23T18:27:02.434Z,9.33
2017-09-23T18:29:30.737Z,8.23
2017-09-23T18:31:59.842Z,7.77
2017-09-23T18:34:28.908Z,7.87
2017-09-23T18:36:57.218Z,6.37
2017-09-23T18:39:26.289Z,7.20
2017-09-23T18:41:54.621Z,7.67
2017-09-23T18:44:23.265Z,11.20
2017-09-23T18:46:51.591Z,7.50
2017-09-23T18:49:19.910Z,8.53
2017-09-23T18:51:48.225Z,7.67
2017-09-23T18:54:16.527Z,14.17
2017-09-23T18:56:44.836Z,8.50
2017-09-23T18:59:13.150Z,7.30
2017-09-23T19:01:41.473Z,6.90
2017-09-23T19:04:10.551Z,6.83
2017-09-23T19:06:38.852Z,7.00
2017-09-23T19:09:07.157Z,5.30
2017-09-23T19:11:35.476Z,7.57
2017-09-23T19:14:03.916Z,6.40
2017-09-23T19:16:32.205Z,6.20
2017-09-23T19:19:00.534Z,5.27
2017-09-23T19:21:29.602Z,9.03
2017-09-23T19:23:57.896Z,6.60
2017-09-23T19:26:26.216Z,6.83
2017-09-23T19:28:54.511Z,7.80
2017-09-23T19:31:23.022Z,5.30
2017-09-23T19:33:51.327Z,6.40
2017-09-23T19:36:20.409Z,6.00
2017-09-23T19:38:49.481Z,6.43
2017-09-23T19:41:17.785Z,5.87
2017-09-23T19:43:47.003Z,7.07
2017-09-23T19:46:15.349Z,7.23
2017-09-23T19:48:43.653Z,7.53
2017-09-23T19:51:12.167Z,8.40
2017-09-23T19:53:40.617Z,7.50
2017-09-23T19:56:08.916Z,7.80
2017-09-23T19:58:37.229Z,8.70
2017-09-23T20:01:05.753Z,9.20
2017-09-23T20:03:34.164Z,8.80
2017-09-23T20:06:02.472Z,6.90
2017-09-23T20:08:30.781Z,6.83
2017-09-23T20:10:59.849Z,9.00
2017-09-23T20:13:28.188Z,7.03
2017-09-23T20:15:56.498Z,8.60
2017-09-23T20:18:24.828Z,7.27
2017-09-23T20:20:53.125Z,6.57
2017-09-23T20:23:21.424Z,8.80
2017-09-23T20:25:49.734Z,8.93
2017-09-23T20:28:18.792Z,9.47
2017-09-23T20:30:47.102Z,13.73
2017-09-23T20:33:16.164Z,8.77
2017-09-23T20:35:44.477Z,9.07
2017-09-23T20:38:13.548Z,10.10
2017-09-23T20:40:41.852Z,9.10
2017-09-23T20:43:10.921Z,8.43
2017-09-23T20:45:39.234Z,10.07
2017-09-23T20:48:07.536Z,14.70
2017-09-23T20:50:35.890Z,8.87
2017-09-23T20:53:04.208Z,10.27
2017-09-23T20:55:32.500Z,8.07
2017-09-23T20:58:00.828Z,9.00
2017-09-23T21:00:29.132Z,8.50
2017-09-23T21:02:57.442Z,8.27
2017-09-23T21:05:25.739Z,10.07
2017-09-23T21:07:55.008Z,8.17
2017-09-23T21:10:23.327Z,8.10
2017-09-23T21:12:51.638Z,9.47
2017-09-23T21:15:19.937Z,8.70
2017-09-23T21:17:48.248Z,10.03
2017-09-23T21:20:17.329Z,10.73
2017-09-23T21:22:45.656Z,8.80
2017-09-23T21:25:13.961Z,8.90
2017-09-23T21:27:42.252Z,8.20
2017-09-23T21:30:10.559Z,8.60
2017-09-23T21:32:39.616Z,12.00
2017-09-23T21:35:07.930Z,9.00
2017-09-23T21:37:36.984Z,9.60
2017-09-23T21:40:05.290Z,9.03
2017-09-23T21:42:34.365Z,10.10
2017-09-23T21:45:02.704Z,13.80
2017-09-23T21:47:31.009Z,10.73
2017-09-23T21:49:59.342Z,12.00
2017-09-23T21:52:27.641Z,13.40
2017-09-23T21:54:55.938Z,9.93
2017-09-23T21:57:24.261Z,11.83
2017-09-23T21:59:52.573Z,11.37
2017-09-23T22:02:20.877Z,10.83
2017-09-23T22:04:49.185Z,12.10
2017-09-23T22:07:18.266Z,11.30
2017-09-23T22:09:46.594Z,12.40
2017-09-23T22:12:14.939Z,25.83
2017-09-23T22:14:44.027Z,28.53
2017-09-23T22:17:13.095Z,27.37
2017-09-23T22:19:41.447Z,18.63
2017-09-23T22:22:09.796Z,21.87
2017-09-23T22:24:38.108Z,16.67
2017-09-23T22:27:06.400Z,14.83
2017-09-23T22:29:34.713Z,14.50
2017-09-23T22:32:03.786Z,16.27
2017-09-23T22:34:32.109Z,13.70
2017-09-23T22:37:00.422Z,16.20
2017-09-23T22:39:28.741Z,17.70
2017-09-23T22:41:57.802Z,17.17
2017-09-23T22:44:26.133Z,15.73
2017-09-23T22:46:54.436Z,20.97
2017-09-23T22:49:22.732Z,19.57
2017-09-23T22:51:51.060Z,20.07
2017-09-23T22:54:19.364Z,20.57
2017-09-23T22:56:47.677Z,20.03
2017-09-23T22:59:15.973Z,17.90
2017-09-23T23:01:45.057Z,19.40
2017-09-23T23:04:14.127Z,18.73
2017-09-23T23:06:42.448Z,16.63
2017-09-23T23:09:11.517Z,18.93
2017-09-23T23:11:40.627Z,18.43
2017-09-23T23:14:09.707Z,18.03
2017-09-23T23:16:38.016Z,20.60
2017-09-23T23:19:06.321Z,20.17
2017-09-23T23:21:34.629Z,26.30
2017-09-23T23:24:02.941Z,20.93
2017-09-23T23:26:32.012Z,19.37
2017-09-23T23:29:00.342Z,23.87
2017-09-23T23:31:28.669Z,21.73
2017-09-23T23:33:57.032Z,22.37
2017-09-23T23:36:25.349Z,23.07
2017-09-23T23:38:53.644Z,22.53
2017-09-23T23:41:21.957Z,26.60
2017-09-23T23:43:50.262Z,27.47
2017-09-23T23:46:19.344Z,24.30
2017-09-23T23:48:47.666Z,24.50
2017-09-23T23:51:15.981Z,27.13
2017-09-23T23:53:44.284Z,27.47
2017-09-23T23:56:12.601Z,25.13
2017-09-23T23:58:40.901Z,23.83
